CheckWX is a tool to help pilots better visualize weather data.  It is not intended as a substitute for an official pre-flight weather briefing.

12:18:38 UTC

EKKA METAR
Karup Airport
Karup, Denmark
Current

29 mins ago

EKKA 251150Z 01013KT 340V040 9999 BKN024 08/03 Q1017 TEMPO 36012G22KT
Observed
Mar-25 @ 11:50 UTC
Wind
  • 010° at 13 KTS
Visibility
10,000+ meters
Flight Rules
MVFR
Cloud Levels
  • Broken at 2,400' AGL
Temperature
C / 46°F
Dewpoint
C / 37°F
Humidity
71%
Altimeter
30.03" Hg
Pressure
1016.92 hPa
Previous

59 mins ago

EKKA 251120Z 02015KT 9999 BKN024 08/03 Q1016 TEMPO 36012G25KT
Observed
Mar-25 @ 11:20 UTC
Wind
  • 020° at 15 KTS
Visibility
10,000+ meters
Flight Rules
MVFR
Cloud Levels
  • Broken at 2,400' AGL
Temperature
C / 46°F
Dewpoint
C / 37°F
Humidity
71%
Altimeter
30" Hg
Pressure
1015.92 hPa
Previous

1 hour ago

EKKA 251051Z 01014KT 340V040 9999 FEW018TCU BKN025 07/03 Q1015 TEMPO 36012G25KT 7000 -SHRA SCT015CB
Observed
Mar-25 @ 10:51 UTC
Wind
  • 010° at 14 KTS
Visibility
10,000+ meters
Flight Rules
MVFR
Cloud Levels
  • Few at 1,800' AGL
  • Broken at 2,500' AGL
Temperature
C / 45°F
Dewpoint
C / 37°F
Humidity
76%
Altimeter
29.97" Hg
Pressure
1014.92 hPa